Time;durP1;ratioP1;P1;durP2;ratioP2;P2;SDS_P1;SDS_P2;PMS_P1;PMS_P2;Temp;Humidity;BMP_temperature;BMP_pressure;BME280_temperature;BME280_humidity;BME280_pressure;Samples;Min_cycle;Max_cycle;Signal;HPM_P1;HPM_P2
2022/06/11 00:01:32;;;;;;;;;;;14.80;99.90;;;;;;5075915;28;19924;-80
2022/06/11 00:04:02;;;;;;;;;;;14.80;99.90;;;;;;5076189;28;19924;-80
2022/06/11 00:06:29;;;;;;;;;;;14.70;99.90;;;;;;5093181;28;19924;-81
2022/06/11 00:08:55;;;;;;;;;;;14.70;99.90;;;;;;5092914;28;20003;-80
2022/06/11 00:11:21;;;;;;;;;;;14.60;99.90;;;;;;5076046;28;20261;-82
2022/06/11 00:13:46;;;;;;;;;;;14.60;99.90;;;;;;5059630;28;19977;-80
2022/06/11 00:16:12;;;;;;;;;;;14.60;99.90;;;;;;5076681;28;20315;-87
2022/06/11 00:18:41;;;;;;;;;;;14.60;99.90;;;;;;5076720;28;19924;-80
2022/06/11 00:21:07;;;;;;;;;;;14.60;99.90;;;;;;5092634;28;19924;-82
2022/06/11 00:23:33;;;;;;;;;;;14.60;99.90;;;;;;5075924;28;19924;-80
2022/06/11 00:26:01;;;;;;;;;;;14.50;99.90;;;;;;5093058;28;20055;-81
2022/06/11 00:28:26;;;;;;;;;;;14.50;99.90;;;;;;5075842;28;19975;-81
2022/06/11 00:30:52;;;;;;;;;;;14.40;99.90;;;;;;5092451;28;19974;-80
2022/06/11 00:33:18;;;;;;;;;;;14.40;99.90;;;;;;5059852;28;19924;-80
2022/06/11 00:35:43;;;;;;;;;;;14.40;99.90;;;;;;5093025;28;19925;-81
2022/06/11 00:38:09;;;;;;;;;;;14.40;99.90;;;;;;5092681;28;19924;-81
2022/06/11 00:40:36;;;;;;;;;;;14.30;99.90;;;;;;5076140;28;19951;-81
2022/06/11 00:43:02;;;;;;;;;;;14.30;99.90;;;;;;5092623;28;20279;-81
2022/06/11 00:45:34;;;;;;;;;;;14.30;99.90;;;;;;5092579;28;19931;-80
2022/06/11 00:48:12;;;;;;;;;;;14.30;99.90;;;;;;5075998;28;20062;-81
2022/06/11 00:50:43;;;;;;;;;;;14.20;99.90;;;;;;5093271;28;20015;-81
2022/06/11 00:53:14;;;;;;;;;;;14.20;99.90;;;;;;5075993;28;19924;-80
2022/06/11 00:55:42;;;;;;;;;;;14.20;99.90;;;;;;5095022;28;19928;-81
2022/06/11 00:58:10;;;;;;;;;;;14.10;99.90;;;;;;5097114;28;20236;-81
2022/06/11 01:00:41;;;;;;;;;;;14.00;99.90;;;;;;5079187;28;19924;-81
2022/06/11 01:03:14;;;;;;;;;;;14.00;99.90;;;;;;5079646;28;19931;-81
2022/06/11 01:05:43;;;;;;;;;;;14.00;99.90;;;;;;5096078;28;19924;-84
2022/06/11 01:08:09;;;;;;;;;;;13.90;99.90;;;;;;5079236;28;19931;-81
2022/06/11 01:10:53;;;;;;;;;;;13.90;99.90;;;;;;5096288;28;19928;-81
2022/06/11 01:13:38;;;;;;;;;;;13.90;99.90;;;;;;5079390;28;19942;-85
2022/06/11 01:16:12;;;;;;;;;;;13.90;99.90;;;;;;5096124;28;19998;-81
2022/06/11 01:18:52;;;;;;;;;;;13.80;99.90;;;;;;5079713;28;19932;-82
2022/06/11 01:21:28;;;;;;;;;;;13.80;99.90;;;;;;5095830;28;20023;-81
2022/06/11 01:24:20;;;;;;;;;;;13.80;99.90;;;;;;5078607;28;19924;-80
2022/06/11 01:26:52;;;;;;;;;;;13.70;99.90;;;;;;5063082;28;19924;-80
2022/06/11 01:29:36;;;;;;;;;;;13.70;99.90;;;;;;5096452;28;20037;-82
2022/06/11 01:32:06;;;;;;;;;;;13.70;99.90;;;;;;5078760;28;19935;-81
2022/06/11 01:34:32;;;;;;;;;;;13.70;99.90;;;;;;5095844;28;20019;-82
2022/06/11 01:37:03;;;;;;;;;;;13.70;99.90;;;;;;5095796;28;20077;-81
2022/06/11 01:39:39;;;;;;;;;;;13.70;99.90;;;;;;5078906;28;20280;-80
2022/06/11 01:42:07;;;;;;;;;;;13.70;99.90;;;;;;5078367;28;20011;-81
2022/06/11 01:44:35;;;;;;;;;;;13.80;99.90;;;;;;5095500;28;19924;-81
2022/06/11 01:47:03;;;;;;;;;;;13.70;99.90;;;;;;5095278;28;20037;-80
2022/06/11 01:49:29;;;;;;;;;;;13.70;99.90;;;;;;5095224;28;20352;-80
2022/06/11 01:52:00;;;;;;;;;;;13.70;99.90;;;;;;5095232;28;19971;-81
2022/06/11 01:54:36;;;;;;;;;;;13.70;99.90;;;;;;5095092;28;20066;-81
2022/06/11 01:57:08;;;;;;;;;;;13.70;99.90;;;;;;5078954;28;20318;-82
2022/06/11 01:59:49;;;;;;;;;;;13.60;99.90;;;;;;5095032;28;20374;-81
2022/06/11 02:02:28;;;;;;;;;;;13.60;99.90;;;;;;5094665;28;19924;-82
2022/06/11 02:04:54;;;;;;;;;;;13.60;99.90;;;;;;5095683;28;19932;-85
2022/06/11 02:07:58;;;;;;;;;;;13.60;99.90;;;;;;5077742;28;19925;-81
2022/06/11 02:10:28;;;;;;;;;;;13.60;99.90;;;;;;5036826;28;19924;-80
2022/06/11 02:13:04;;;;;;;;;;;13.50;99.90;;;;;;5036789;28;20419;-80
2022/06/11 02:15:32;;;;;;;;;;;13.60;99.90;;;;;;5067977;28;19924;-81
2022/06/11 02:18:00;;;;;;;;;;;13.50;99.90;;;;;;5094678;28;20269;-80
2022/06/11 02:20:29;;;;;;;;;;;13.50;99.90;;;;;;5094592;28;19924;-85
2022/06/11 02:22:57;;;;;;;;;;;13.50;99.90;;;;;;5095064;28;19924;-80
2022/06/11 02:25:25;;;;;;;;;;;13.50;99.90;;;;;;5077770;28;19947;-81
2022/06/11 02:27:53;;;;;;;;;;;13.40;99.90;;;;;;5094512;28;19942;-81
2022/06/11 02:30:20;;;;;;;;;;;13.40;99.90;;;;;;5077906;28;20013;-80
2022/06/11 02:32:46;;;;;;;;;;;13.40;99.90;;;;;;5094148;28;20012;-80
2022/06/11 02:35:13;;;;;;;;;;;13.30;99.90;;;;;;5077896;28;19975;-81
2022/06/11 02:37:44;;;;;;;;;;;13.30;99.90;;;;;;5094041;28;19924;-80
2022/06/11 02:40:17;;;;;;;;;;;13.30;99.90;;;;;;5077820;28;19943;-80
2022/06/11 02:42:43;;;;;;;;;;;13.30;99.90;;;;;;5080493;28;20351;-80
2022/06/11 02:45:12;;;;;;;;;;;13.30;99.90;;;;;;5080608;28;19923;-81
2022/06/11 02:47:39;;;;;;;;;;;13.20;99.90;;;;;;5097839;28;20253;-81
2022/06/11 02:50:04;;;;;;;;;;;13.20;99.90;;;;;;5080419;28;20030;-81
2022/06/11 02:52:31;;;;;;;;;;;13.20;99.90;;;;;;5064208;28;19987;-88
2022/06/11 02:54:56;;;;;;;;;;;13.20;99.90;;;;;;5080132;28;20371;-83
2022/06/11 02:57:24;;;;;;;;;;;13.20;99.90;;;;;;5097396;28;19980;-80
2022/06/11 02:59:50;;;;;;;;;;;13.20;99.90;;;;;;5080452;28;19927;-80
2022/06/11 03:02:15;;;;;;;;;;;13.20;99.90;;;;;;5080865;28;19924;-81
2022/06/11 03:04:42;;;;;;;;;;;13.20;99.90;;;;;;5081083;28;19947;-81
2022/06/11 03:07:10;;;;;;;;;;;13.30;99.90;;;;;;5080294;28;19975;-81
2022/06/11 03:09:36;;;;;;;;;;;13.30;99.90;;;;;;5096819;28;19963;-81
2022/06/11 03:12:03;;;;;;;;;;;13.40;99.90;;;;;;5097799;28;20216;-81
2022/06/11 03:14:29;;;;;;;;;;;13.40;99.90;;;;;;5063469;28;20002;-81
2022/06/11 03:16:54;;;;;;;;;;;13.50;99.90;;;;;;5080081;28;20018;-80
2022/06/11 03:19:20;;;;;;;;;;;13.60;99.90;;;;;;5079206;28;19923;-81
2022/06/11 03:21:46;;;;;;;;;;;13.50;99.90;;;;;;5097347;28;19923;-81
2022/06/11 03:24:12;;;;;;;;;;;13.50;99.90;;;;;;5096739;28;20022;-81
2022/06/11 03:26:38;;;;;;;;;;;13.50;99.90;;;;;;5096766;28;19975;-81
2022/06/11 03:29:03;;;;;;;;;;;13.50;99.90;;;;;;5080623;28;19924;-81
2022/06/11 03:31:29;;;;;;;;;;;13.50;99.90;;;;;;5097548;28;19945;-81
2022/06/11 03:33:55;;;;;;;;;;;13.50;99.90;;;;;;5096961;28;19924;-81
2022/06/11 03:36:20;;;;;;;;;;;13.40;99.90;;;;;;5079825;28;19976;-81
2022/06/11 03:38:46;;;;;;;;;;;13.50;99.90;;;;;;5079549;28;19993;-81
2022/06/11 03:41:12;;;;;;;;;;;13.50;99.90;;;;;;5059150;28;20291;-81
2022/06/11 03:43:38;;;;;;;;;;;13.50;99.90;;;;;;5076308;28;19924;-81
2022/06/11 03:46:04;;;;;;;;;;;13.50;99.90;;;;;;5059886;28;20378;-80
2022/06/11 03:48:30;;;;;;;;;;;13.50;99.90;;;;;;5076597;28;20011;-81
2022/06/11 03:50:56;;;;;;;;;;;13.50;99.90;;;;;;5076479;28;19994;-80
2022/06/11 03:53:21;;;;;;;;;;;13.50;99.90;;;;;;5076239;28;20388;-86
2022/06/11 03:55:47;;;;;;;;;;;13.50;99.90;;;;;;5060233;28;19967;-80
2022/06/11 03:58:14;;;;;;;;;;;13.50;99.90;;;;;;5076218;28;20292;-81
2022/06/11 04:03:25;;;;;;;;;;;13.50;99.90;;;;;;5093776;28;20268;-80
2022/06/11 04:05:52;;;;;;;;;;;13.50;99.90;;;;;;5076135;28;19935;-81
2022/06/11 04:08:18;;;;;;;;;;;13.50;99.90;;;;;;5093730;28;19992;-80
2022/06/11 04:10:44;;;;;;;;;;;13.50;99.90;;;;;;5076001;28;19924;-81
2022/06/11 04:13:10;;;;;;;;;;;13.50;99.90;;;;;;5093733;28;19925;-80
2022/06/11 04:15:38;;;;;;;;;;;13.60;99.90;;;;;;5092626;28;19971;-80
2022/06/11 04:18:04;;;;;;;;;;;13.60;99.90;;;;;;5076010;28;19925;-87
2022/06/11 04:20:31;;;;;;;;;;;13.60;99.90;;;;;;5076222;28;19928;-80
2022/06/11 04:22:56;;;;;;;;;;;13.70;99.90;;;;;;5075629;28;19924;-83
2022/06/11 04:25:22;;;;;;;;;;;13.70;99.90;;;;;;5076043;28;19947;-81
2022/06/11 04:27:53;;;;;;;;;;;13.80;99.90;;;;;;5092685;28;19924;-81
2022/06/11 04:30:19;;;;;;;;;;;13.80;99.90;;;;;;5094847;28;19920;-81
2022/06/11 04:32:44;;;;;;;;;;;13.90;99.90;;;;;;5097477;28;20457;-81
2022/06/11 04:35:10;;;;;;;;;;;13.90;99.90;;;;;;5079752;28;20007;-80
2022/06/11 04:37:35;;;;;;;;;;;13.90;99.90;;;;;;5096650;28;20369;-81
2022/06/11 04:40:03;;;;;;;;;;;14.00;99.90;;;;;;5079929;28;20018;-81
2022/06/11 04:42:29;;;;;;;;;;;14.10;99.90;;;;;;5095995;28;19997;-80
2022/06/11 04:44:55;;;;;;;;;;;14.20;99.90;;;;;;5096464;28;19924;-80
2022/06/11 04:47:22;;;;;;;;;;;14.30;99.90;;;;;;5096776;28;19924;-80
2022/06/11 04:49:48;;;;;;;;;;;14.40;99.90;;;;;;5096419;28;19924;-81
2022/06/11 04:52:14;;;;;;;;;;;14.50;99.90;;;;;;5096100;28;20340;-80
2022/06/11 04:54:40;;;;;;;;;;;14.50;99.90;;;;;;5096348;28;19924;-81
2022/06/11 04:57:05;;;;;;;;;;;14.60;99.90;;;;;;5079063;28;19924;-80
2022/06/11 04:59:32;;;;;;;;;;;14.70;99.90;;;;;;5079611;28;19982;-80
2022/06/11 05:01:59;;;;;;;;;;;14.70;99.90;;;;;;5079304;28;19997;-80
2022/06/11 05:04:25;;;;;;;;;;;14.80;99.90;;;;;;5096140;28;19971;-80
2022/06/11 05:06:51;;;;;;;;;;;14.80;99.90;;;;;;5079451;28;20019;-80
2022/06/11 05:09:17;;;;;;;;;;;14.90;99.90;;;;;;5096143;28;20391;-84
2022/06/11 05:11:44;;;;;;;;;;;15.00;99.90;;;;;;5079132;28;19967;-81
2022/06/11 05:14:09;;;;;;;;;;;15.10;99.90;;;;;;5095921;28;19931;-80
2022/06/11 05:16:35;;;;;;;;;;;15.10;99.90;;;;;;5095959;28;19928;-80
2022/06/11 05:19:01;;;;;;;;;;;15.20;99.90;;;;;;5096196;28;20308;-80
2022/06/11 05:21:27;;;;;;;;;;;15.30;99.90;;;;;;5078560;28;19931;-80
2022/06/11 05:23:52;;;;;;;;;;;15.30;99.90;;;;;;5095860;28;19977;-81
2022/06/11 05:26:24;;;;;;;;;;;15.40;99.90;;;;;;5095672;28;19924;-80
2022/06/11 05:28:50;;;;;;;;;;;15.40;99.90;;;;;;5078884;28;19967;-89
2022/06/11 05:31:16;;;;;;;;;;;15.50;99.90;;;;;;5096476;28;19924;-81
2022/06/11 05:33:42;;;;;;;;;;;15.50;99.90;;;;;;5078930;28;19928;-83
2022/06/11 05:36:08;;;;;;;;;;;15.50;99.90;;;;;;5095847;28;19978;-81
2022/06/11 05:38:34;;;;;;;;;;;15.60;99.90;;;;;;5078927;28;19924;-80
2022/06/11 05:40:59;;;;;;;;;;;15.70;99.90;;;;;;5094485;28;19974;-81
2022/06/11 05:43:26;;;;;;;;;;;15.70;99.90;;;;;;5078536;28;19924;-81
2022/06/11 05:45:54;;;;;;;;;;;15.80;99.90;;;;;;5078446;28;19928;-82
2022/06/11 05:48:21;;;;;;;;;;;15.90;99.90;;;;;;5095360;28;20336;-81
2022/06/11 05:50:49;;;;;;;;;;;16.00;99.90;;;;;;5095150;28;19924;-80
2022/06/11 05:53:15;;;;;;;;;;;16.10;99.90;;;;;;5095221;28;20387;-80
2022/06/11 05:55:42;;;;;;;;;;;16.30;99.90;;;;;;5078233;28;19928;-81
2022/06/11 05:58:11;;;;;;;;;;;16.30;99.90;;;;;;5095062;28;20286;-82
2022/06/11 06:00:38;;;;;;;;;;;16.30;99.90;;;;;;5095026;28;20320;-80
2022/06/11 06:03:04;;;;;;;;;;;16.20;99.90;;;;;;5077873;28;19924;-80
2022/06/11 06:05:30;;;;;;;;;;;16.20;99.90;;;;;;5078123;28;20280;-79
2022/06/11 06:07:56;;;;;;;;;;;16.30;99.90;;;;;;5061712;28;20028;-79
2022/06/11 06:10:22;;;;;;;;;;;16.30;99.90;;;;;;5094969;28;19963;-80
2022/06/11 06:12:48;;;;;;;;;;;16.30;99.90;;;;;;5094883;28;19931;-78
2022/06/11 06:15:18;;;;;;;;;;;16.40;99.90;;;;;;5094488;28;20357;-78
2022/06/11 06:17:44;;;;;;;;;;;16.40;99.90;;;;;;5095408;28;20019;-79
2022/06/11 06:20:12;;;;;;;;;;;16.40;99.90;;;;;;5061497;28;19967;-81
2022/06/11 06:22:38;;;;;;;;;;;16.50;99.90;;;;;;5077397;28;20010;-79
2022/06/11 06:25:04;;;;;;;;;;;16.50;99.90;;;;;;5061338;28;20328;-80
2022/06/11 06:27:30;;;;;;;;;;;16.50;99.90;;;;;;5095233;28;19924;-79
2022/06/11 06:29:55;;;;;;;;;;;16.60;99.90;;;;;;5095002;28;19924;-80
2022/06/11 06:32:21;;;;;;;;;;;16.60;99.90;;;;;;5094417;28;19928;-80
2022/06/11 06:34:46;;;;;;;;;;;16.70;99.90;;;;;;5077255;28;19925;-80
2022/06/11 06:37:12;;;;;;;;;;;16.80;99.90;;;;;;5077508;28;20011;-80
2022/06/11 06:39:38;;;;;;;;;;;16.90;99.90;;;;;;5060827;28;19931;-81
2022/06/11 06:42:04;;;;;;;;;;;17.00;99.90;;;;;;5076998;28;19947;-81
2022/06/11 06:44:29;;;;;;;;;;;17.00;99.90;;;;;;5077355;28;19927;-80
2022/06/11 06:46:55;;;;;;;;;;;16.90;99.90;;;;;;5093794;28;19931;-80
2022/06/11 06:49:20;;;;;;;;;;;16.80;99.90;;;;;;5077202;28;20016;-81
2022/06/11 06:51:46;;;;;;;;;;;16.70;99.90;;;;;;5077149;28;20019;-79
2022/06/11 06:54:11;;;;;;;;;;;16.70;99.90;;;;;;5060609;28;19927;-83
2022/06/11 06:56:37;;;;;;;;;;;16.80;99.90;;;;;;5093945;28;19981;-79
2022/06/11 06:59:04;;;;;;;;;;;16.90;99.90;;;;;;5076966;28;19924;-80
2022/06/11 07:01:30;;;;;;;;;;;16.90;99.90;;;;;;5093753;28;19924;-78
2022/06/11 07:03:56;;;;;;;;;;;17.00;99.90;;;;;;5093892;28;19924;-78
2022/06/11 07:06:22;;;;;;;;;;;17.00;99.90;;;;;;5076543;28;19924;-80
2022/06/11 07:08:49;;;;;;;;;;;17.10;99.90;;;;;;5093961;28;20019;-79
2022/06/11 07:11:14;;;;;;;;;;;17.10;99.90;;;;;;5093658;28;19931;-79
2022/06/11 07:13:40;;;;;;;;;;;17.20;99.90;;;;;;5076718;28;19928;-80
2022/06/11 07:16:06;;;;;;;;;;;17.20;99.90;;;;;;5060802;28;19979;-80
2022/06/11 07:18:36;;;;;;;;;;;17.20;99.90;;;;;;5076928;28;20253;-81
2022/06/11 07:21:04;;;;;;;;;;;17.20;99.90;;;;;;5076877;28;19955;-84
2022/06/11 07:23:35;;;;;;;;;;;17.20;99.90;;;;;;5093509;28;19931;-78
2022/06/11 07:26:02;;;;;;;;;;;17.20;99.90;;;;;;5076849;28;19935;-80
2022/06/11 07:28:30;;;;;;;;;;;17.30;99.90;;;;;;5076774;28;19924;-81
2022/06/11 07:30:55;;;;;;;;;;;17.30;99.90;;;;;;5093329;28;20019;-80
2022/06/11 07:33:23;;;;;;;;;;;17.40;99.90;;;;;;5059511;28;19979;-79
2022/06/11 07:35:49;;;;;;;;;;;17.40;99.90;;;;;;5076707;28;19924;-80
2022/06/11 07:38:16;;;;;;;;;;;17.50;99.90;;;;;;5076653;28;19926;-80
2022/06/11 07:40:42;;;;;;;;;;;17.50;99.90;;;;;;5078724;28;19981;-82
2022/06/11 07:43:08;;;;;;;;;;;17.60;99.90;;;;;;5079790;28;19923;-85
2022/06/11 07:45:34;;;;;;;;;;;17.60;99.90;;;;;;5096186;28;19935;-79
2022/06/11 07:48:00;;;;;;;;;;;17.50;99.90;;;;;;5096213;28;19931;-83
2022/06/11 07:50:31;;;;;;;;;;;17.50;99.90;;;;;;5097251;28;19920;-78
2022/06/11 07:52:57;;;;;;;;;;;17.50;99.90;;;;;;5096423;28;19982;-83
2022/06/11 07:55:23;;;;;;;;;;;17.40;99.90;;;;;;5096386;28;19997;-83
2022/06/11 07:57:49;;;;;;;;;;;17.40;99.90;;;;;;5097155;28;19927;-83
2022/06/11 08:00:26;;;;;;;;;;;17.40;99.90;;;;;;5063554;28;19970;-82
2022/06/11 08:02:52;;;;;;;;;;;17.50;99.90;;;;;;5079556;28;19976;-82
2022/06/11 08:05:17;;;;;;;;;;;17.60;99.90;;;;;;5062612;28;19928;-81
2022/06/11 08:07:43;;;;;;;;;;;17.70;99.90;;;;;;5079588;28;19930;-83
2022/06/11 08:10:09;;;;;;;;;;;17.70;99.90;;;;;;5062743;28;19924;-85
2022/06/11 08:12:34;;;;;;;;;;;17.80;99.90;;;;;;5063574;28;19935;-83
2022/06/11 08:15:00;;;;;;;;;;;17.90;99.90;;;;;;5062710;28;19924;-83
2022/06/11 08:17:27;;;;;;;;;;;17.90;99.90;;;;;;5080106;28;19972;-83
2022/06/11 08:19:52;;;;;;;;;;;18.00;99.90;;;;;;5079441;28;20028;-84
2022/06/11 08:22:19;;;;;;;;;;;18.00;99.90;;;;;;5095916;28;20386;-83
2022/06/11 08:24:44;;;;;;;;;;;18.00;99.90;;;;;;5062620;28;19946;-83
2022/06/11 08:27:10;;;;;;;;;;;18.10;99.90;;;;;;5079620;28;20348;-86
2022/06/11 08:29:35;;;;;;;;;;;18.00;99.90;;;;;;5062640;28;20275;-83
2022/06/11 08:32:01;;;;;;;;;;;18.10;99.90;;;;;;5096343;28;20260;-84
2022/06/11 08:34:27;;;;;;;;;;;18.00;99.90;;;;;;5079391;28;19924;-83
2022/06/11 08:36:52;;;;;;;;;;;18.10;99.90;;;;;;5095643;28;19920;-83
2022/06/11 08:39:18;;;;;;;;;;;18.10;99.90;;;;;;5095555;28;19924;-84
2022/06/11 08:41:43;;;;;;;;;;;18.20;99.90;;;;;;5078766;28;19923;-83
2022/06/11 08:44:10;;;;;;;;;;;18.30;99.90;;;;;;5095991;28;19931;-81
2022/06/11 08:46:37;;;;;;;;;;;18.30;99.90;;;;;;5096160;28;20305;-82
2022/06/11 08:49:09;;;;;;;;;;;18.40;99.90;;;;;;5095968;28;20011;-83
2022/06/11 08:51:41;;;;;;;;;;;18.30;99.90;;;;;;5096057;28;19931;-83
2022/06/11 08:54:33;;;;;;;;;;;18.40;99.90;;;;;;5095204;28;19923;-82
2022/06/11 08:57:01;;;;;;;;;;;18.40;99.90;;;;;;5094244;28;19924;-81
2022/06/11 08:59:27;;;;;;;;;;;18.40;99.90;;;;;;5078958;28;20347;-80
2022/06/11 09:01:52;;;;;;;;;;;18.50;99.90;;;;;;5095303;28;19930;-81
2022/06/11 09:04:37;;;;;;;;;;;18.60;99.90;;;;;;5095747;28;19924;-82
2022/06/11 09:07:16;;;;;;;;;;;18.60;99.90;;;;;;5095363;28;19970;-82
2022/06/11 09:09:51;;;;;;;;;;;18.70;99.90;;;;;;5095631;28;19949;-82
2022/06/11 09:12:24;;;;;;;;;;;18.60;99.90;;;;;;5095311;28;19924;-83
2022/06/11 09:14:53;;;;;;;;;;;18.60;99.90;;;;;;5096011;28;19930;-81
2022/06/11 09:17:21;;;;;;;;;;;18.60;99.90;;;;;;5080059;28;20407;-82
2022/06/11 09:19:56;;;;;;;;;;;18.60;99.90;;;;;;5099608;28;20022;-81
2022/06/11 09:22:28;;;;;;;;;;;18.70;99.90;;;;;;5082836;28;20329;-81
2022/06/11 09:25:12;;;;;;;;;;;18.90;99.90;;;;;;5099238;28;20363;-79
2022/06/11 09:27:39;;;;;;;;;;;19.00;99.90;;;;;;5099142;28;19923;-78
2022/06/11 09:30:07;;;;;;;;;;;19.10;99.90;;;;;;5082509;28;19973;-78
2022/06/11 09:32:41;;;;;;;;;;;19.10;99.90;;;;;;5099266;28;19924;-78
2022/06/11 09:35:07;;;;;;;;;;;19.20;99.90;;;;;;5099040;28;20275;-79
2022/06/11 09:37:36;;;;;;;;;;;19.30;99.90;;;;;;5099692;28;19924;-78
2022/06/11 09:40:02;;;;;;;;;;;19.30;99.90;;;;;;5081988;28;19961;-78
2022/06/11 09:42:37;;;;;;;;;;;19.30;99.90;;;;;;5081800;28;20080;-81
2022/06/11 09:45:12;;;;;;;;;;;19.30;99.90;;;;;;5098878;28;19931;-82
2022/06/11 09:48:10;;;;;;;;;;;19.40;99.90;;;;;;5116656;28;19963;-80
2022/06/11 09:50:50;;;;;;;;;;;19.40;99.90;;;;;;5059122;28;19924;-81
2022/06/11 09:53:21;;;;;;;;;;;19.50;99.90;;;;;;5098964;28;19924;-81
2022/06/11 09:55:56;;;;;;;;;;;19.60;99.90;;;;;;5099460;28;20335;-82
2022/06/11 09:58:39;;;;;;;;;;;19.60;99.90;;;;;;5081623;28;19934;-83
2022/06/11 10:01:09;;;;;;;;;;;19.70;99.90;;;;;;5099157;28;19927;-80
2022/06/11 10:03:38;;;;;;;;;;;19.80;99.90;;;;;;5081200;28;20344;-82
2022/06/11 10:06:04;;;;;;;;;;;19.90;99.90;;;;;;5098071;28;19931;-81
2022/06/11 10:08:35;;;;;;;;;;;19.70;99.90;;;;;;5098357;28;19924;-83
2022/06/11 10:11:04;;;;;;;;;;;19.50;99.90;;;;;;5081668;28;19923;-83
2022/06/11 10:13:48;;;;;;;;;;;19.40;99.90;;;;;;5081338;28;19924;-81
2022/06/11 10:16:25;;;;;;;;;;;19.60;99.90;;;;;;5097864;28;19931;-82
2022/06/11 10:18:51;;;;;;;;;;;19.60;99.90;;;;;;5098125;28;19931;-83
2022/06/11 10:21:20;;;;;;;;;;;19.80;99.90;;;;;;5097939;28;19924;-84
2022/06/11 10:23:55;;;;;;;;;;;20.00;99.90;;;;;;5097910;28;19924;-82
2022/06/11 10:26:25;;;;;;;;;;;20.20;99.90;;;;;;5097976;28;19924;-83
2022/06/11 10:28:53;;;;;;;;;;;20.30;99.90;;;;;;5114099;28;20363;-85
2022/06/11 10:31:31;;;;;;;;;;;20.30;99.90;;;;;;5081288;28;19930;-81
2022/06/11 10:34:03;;;;;;;;;;;20.10;99.90;;;;;;5097933;28;20286;-81
2022/06/11 10:36:31;;;;;;;;;;;20.30;99.90;;;;;;5098215;28;20439;-83
2022/06/11 10:39:20;;;;;;;;;;;20.50;99.90;;;;;;5080814;28;19924;-81
2022/06/11 10:41:49;;;;;;;;;;;20.70;99.90;;;;;;5080847;28;20347;-79
2022/06/11 10:44:14;;;;;;;;;;;20.70;99.90;;;;;;5073880;28;19932;-79
2022/06/11 10:46:40;;;;;;;;;;;20.70;99.90;;;;;;5073927;28;19924;-79
2022/06/11 10:49:12;;;;;;;;;;;20.80;99.90;;;;;;5057999;28;19929;-80
2022/06/11 10:51:38;;;;;;;;;;;20.80;99.90;;;;;;5073624;28;20356;-81
2022/06/11 10:54:12;;;;;;;;;;;20.90;99.90;;;;;;5057350;28;19929;-81
2022/06/11 10:56:49;;;;;;;;;;;21.00;99.90;;;;;;5074024;28;19986;-78
2022/06/11 10:59:28;;;;;;;;;;;21.10;99.90;;;;;;5074452;28;19924;-78
2022/06/11 11:01:58;;;;;;;;;;;21.20;99.90;;;;;;5057018;28;19933;-78
2022/06/11 11:04:29;;;;;;;;;;;21.20;99.90;;;;;;5057964;28;19943;-78
2022/06/11 11:07:13;;;;;;;;;;;21.20;99.90;;;;;;5057251;28;19924;-78
2022/06/11 11:09:38;;;;;;;;;;;21.30;99.90;;;;;;5073774;28;19924;-78
2022/06/11 11:12:07;;;;;;;;;;;21.50;99.90;;;;;;5073219;28;19931;-78
2022/06/11 11:14:41;;;;;;;;;;;21.50;99.90;;;;;;5073219;28;19974;-79
2022/06/11 11:17:13;;;;;;;;;;;21.50;99.90;;;;;;5073558;28;19924;-81
2022/06/11 11:19:40;;;;;;;;;;;21.60;99.90;;;;;;5057058;28;19924;-79
2022/06/11 11:22:05;;;;;;;;;;;21.50;99.90;;;;;;5056435;28;20002;-79
2022/06/11 11:24:32;;;;;;;;;;;21.70;99.90;;;;;;5073316;28;20035;-81
2022/06/11 11:27:02;;;;;;;;;;;21.70;99.90;;;;;;5073238;28;19947;-80
2022/06/11 11:29:32;;;;;;;;;;;21.70;99.90;;;;;;5073137;28;19931;-80
2022/06/11 11:32:02;;;;;;;;;;;22.00;99.90;;;;;;5073895;28;19924;-80
2022/06/11 11:34:41;;;;;;;;;;;22.50;99.90;;;;;;5073161;28;20326;-81
2022/06/11 11:37:13;;;;;;;;;;;22.90;99.90;;;;;;5073946;28;19931;-81
2022/06/11 11:39:48;;;;;;;;;;;22.80;99.90;;;;;;5056425;28;20017;-82
2022/06/11 11:42:17;;;;;;;;;;;22.50;99.90;;;;;;5088075;28;19931;-83
2022/06/11 11:44:49;;;;;;;;;;;22.40;99.90;;;;;;5076575;28;20477;-82
2022/06/11 11:47:33;;;;;;;;;;;22.20;99.90;;;;;;5077198;28;19924;-81
2022/06/11 11:50:11;;;;;;;;;;;22.30;99.90;;;;;;5093296;28;19931;-80
2022/06/11 11:52:41;;;;;;;;;;;22.10;99.90;;;;;;5093124;28;20382;-84
2022/06/11 11:55:13;;;;;;;;;;;22.40;99.90;;;;;;5093831;28;19924;-82
2022/06/11 11:57:39;;;;;;;;;;;22.30;99.90;;;;;;5076477;28;20317;-81
2022/06/11 12:00:25;;;;;;;;;;;22.40;99.90;;;;;;5093824;28;20057;-81
2022/06/11 12:02:53;;;;;;;;;;;22.70;99.90;;;;;;5091775;28;20087;-82
2022/06/11 12:05:23;;;;;;;;;;;23.10;99.90;;;;;;5093282;28;19981;-82
2022/06/11 12:07:50;;;;;;;;;;;23.50;99.90;;;;;;5076215;28;19986;-81
2022/06/11 12:10:28;;;;;;;;;;;23.80;99.90;;;;;;5093286;28;19931;-81
2022/06/11 12:12:55;;;;;;;;;;;24.10;99.90;;;;;;5076102;28;19924;-78
2022/06/11 12:15:23;;;;;;;;;;;24.50;99.90;;;;;;5092869;28;19989;-81
2022/06/11 12:17:50;;;;;;;;;;;24.50;99.40;;;;;;5075961;28;19967;-80
2022/06/11 12:20:34;;;;;;;;;;;24.20;99.90;;;;;;5092706;28;19932;-79
2022/06/11 12:23:23;;;;;;;;;;;24.00;99.80;;;;;;5092144;28;19924;-79
2022/06/11 12:26:01;;;;;;;;;;;24.20;99.90;;;;;;5084212;28;20359;-79
2022/06/11 12:28:32;;;;;;;;;;;24.00;99.90;;;;;;5075924;28;20347;-79
2022/06/11 12:30:58;;;;;;;;;;;23.90;99.90;;;;;;5076176;28;19928;-79
2022/06/11 12:33:24;;;;;;;;;;;23.60;99.90;;;;;;5075821;28;19924;-79
2022/06/11 12:35:52;;;;;;;;;;;23.20;99.90;;;;;;5076628;28;19928;-79
2022/06/11 12:38:27;;;;;;;;;;;23.20;99.90;;;;;;5092739;28;19931;-79
2022/06/11 12:41:12;;;;;;;;;;;23.20;99.90;;;;;;5075293;28;19924;-79
2022/06/11 12:43:37;;;;;;;;;;;23.10;99.90;;;;;;5075351;28;19931;-78
2022/06/11 12:46:03;;;;;;;;;;;23.30;99.90;;;;;;5092520;28;19924;-79
2022/06/11 12:48:33;;;;;;;;;;;23.50;99.90;;;;;;5075379;28;19924;-78
2022/06/11 12:51:01;;;;;;;;;;;23.30;99.90;;;;;;5094474;28;19931;-78
2022/06/11 12:53:36;;;;;;;;;;;23.30;99.90;;;;;;5096664;28;19929;-78
2022/06/11 12:56:08;;;;;;;;;;;23.60;99.90;;;;;;5096568;28;19944;-78
2022/06/11 12:58:49;;;;;;;;;;;24.10;99.30;;;;;;5096458;28;19924;-79
2022/06/11 13:01:26;;;;;;;;;;;24.40;97.20;;;;;;5079469;28;20024;-79
2022/06/11 13:03:55;;;;;;;;;;;24.70;96.10;;;;;;5096893;28;19951;-80
2022/06/11 13:06:21;;;;;;;;;;;25.00;96.80;;;;;;5096147;28;19979;-81
2022/06/11 13:09:12;;;;;;;;;;;25.00;94.80;;;;;;5096043;28;19958;-82
2022/06/11 13:12:01;;;;;;;;;;;25.20;95.50;;;;;;5063303;28;19931;-78
2022/06/11 13:14:53;;;;;;;;;;;25.00;94.30;;;;;;5095659;28;20006;-80
2022/06/11 13:17:21;;;;;;;;;;;24.70;91.40;;;;;;5095936;28;20355;-79
2022/06/11 13:19:54;;;;;;;;;;;24.90;91.50;;;;;;5096088;28;19924;-85
2022/06/11 13:22:19;;;;;;;;;;;25.10;92.00;;;;;;5095873;28;20372;-79
2022/06/11 13:24:48;;;;;;;;;;;25.40;92.60;;;;;;5095726;28;19963;-79
2022/06/11 13:27:32;;;;;;;;;;;25.50;90.10;;;;;;5096558;28;20088;-79
2022/06/11 13:29:58;;;;;;;;;;;25.60;90.20;;;;;;5095418;28;19967;-78
2022/06/11 13:32:26;;;;;;;;;;;25.40;90.20;;;;;;5095982;28;19959;-78
2022/06/11 13:35:10;;;;;;;;;;;25.80;93.80;;;;;;5095364;28;19973;-79
2022/06/11 13:37:46;;;;;;;;;;;26.10;92.00;;;;;;5078683;28;20026;-79
2022/06/11 13:40:30;;;;;;;;;;;26.70;89.70;;;;;;5095900;28;19977;-80
2022/06/11 13:43:25;;;;;;;;;;;26.30;90.20;;;;;;5095479;28;19946;-78
2022/06/11 13:45:55;;;;;;;;;;;26.30;89.40;;;;;;5042482;28;20376;-83
2022/06/11 13:48:30;;;;;;;;;;;26.40;90.00;;;;;;5078192;28;19924;-79
2022/06/11 13:50:55;;;;;;;;;;;26.40;90.30;;;;;;5095273;28;20294;-79
2022/06/11 13:56:15;;;;;;;;;;;26.70;87.00;;;;;;5095865;28;20248;-80
2022/06/11 13:58:41;;;;;;;;;;;27.00;86.60;;;;;;5095897;28;19924;-80
2022/06/11 14:01:06;;;;;;;;;;;26.70;87.60;;;;;;5095063;28;19924;-80
2022/06/11 14:03:44;;;;;;;;;;;27.30;88.60;;;;;;5094293;28;20368;-80
2022/06/11 14:06:11;;;;;;;;;;;27.30;84.20;;;;;;5094953;28;20030;-80
2022/06/11 14:08:42;;;;;;;;;;;27.40;84.60;;;;;;5078156;28;19924;-80
2022/06/11 14:11:16;;;;;;;;;;;27.60;84.80;;;;;;5094828;28;19924;-80
2022/06/11 14:13:48;;;;;;;;;;;27.60;84.80;;;;;;5077987;28;20383;-80
2022/06/11 14:16:32;;;;;;;;;;;27.70;83.10;;;;;;5094931;28;19994;-78
2022/06/11 14:18:58;;;;;;;;;;;27.40;80.20;;;;;;5095522;28;20240;-79
2022/06/11 14:21:39;;;;;;;;;;;27.80;83.00;;;;;;5094329;28;20360;-79
2022/06/11 14:24:09;;;;;;;;;;;27.80;76.00;;;;;;5094696;28;19971;-78
2022/06/11 14:26:52;;;;;;;;;;;28.20;75.40;;;;;;5094581;28;19928;-78
2022/06/11 14:29:23;;;;;;;;;;;28.40;76.00;;;;;;5077944;28;19946;-80
2022/06/11 14:31:51;;;;;;;;;;;28.30;75.50;;;;;;5094783;28;20403;-78
2022/06/11 14:34:25;;;;;;;;;;;28.30;71.50;;;;;;5094673;28;19935;-82
2022/06/11 14:37:09;;;;;;;;;;;28.60;71.40;;;;;;5077328;28;19924;-80